• Join FlightAware (Why Join?)
  • Login
  • US Flag 
07:22PM EDT


 

Airport Tracker/Info


-or-


 

Live Flight TrackerFlight Track Log ✈ DAL3643 ✈ 28-Apr-2013 ✈ KSTL - KCVG

Flight Track Log - Related Links

Times and Time Zones

All times are in EDT time to prevent confusion due to time zone crossing. See the DAL3643 flight status page for this flight to view local times or setup timezone preferences in your user account.

Time Position Orientation Groundspeed Altitude Reporting Facility
EDT Latitude Longitude Course Direction KTS MPH feet Rate Location/Type
11:36AM 38.8181 -90.4283 109° East 203 234 3,800  Level Kansas City Center
11:37AM 38.8303 -90.3422 80° East 237 273 5,900 2,340 Climbing Kansas City Center
11:38AM 38.6106 -89.8695 107° East  Level FlightAware Approximate
11:38AM 38.7992 -90.2458 112° Southeast 283 326 8,700  Level Kansas City Center
11:39AM 38.5802 -89.7404 107° East  Level FlightAware Approximate
11:39AM 38.7653 -90.1478 114° Southeast 295 339 11,100  Level Kansas City Center
11:40AM 38.5465 -89.6127 110° East  Level FlightAware Approximate
11:40AM 38.7289 -90.0408 114° Southeast 317 365 12,600  Level Kansas City Center
11:41AM 38.5155 -89.4997 109° East  Level FlightAware Approximate
11:41AM 38.6878 -89.9253 114° Southeast 348 400 14,300  Level Kansas City Center
11:42AM 38.6386 -89.7822 114° Southeast 362 417 16,000 1,500 Climbing Kansas City Center
11:43AM 38.5953 -89.6561 114° Southeast 369 425 17,500 1,200 Climbing Kansas City Center
11:44AM 38.5514 -89.5300 114° Southeast 386 444 18,500 960 Climbing Kansas City Center
11:45AM 38.5033 -89.3911 114° Southeast 396 456 19,500 960 Climbing Kansas City Center
11:46AM 38.4561 -89.2578 114° Southeast 410 472 20,600 1,020 Climbing Kansas City Center
11:47AM 38.4178 -89.1192 109° East 415 478 21,700 1,020 Climbing Kansas City Center
11:48AM 38.4111 -88.9611 93° East 415 478 22,700 780 Climbing Kansas City Center
11:49AM 38.4019 -88.8114 94° East 424 488 23,300 600 Climbing Kansas City Center
11:50AM 38.3894 -88.6519 96° East 432 497 24,000 720 Climbing Kansas City Center
11:51AM 38.3803 -88.4983 94° East 434 499 24,800 480 Climbing Kansas City Center
11:52AM 38.3936 -88.3417 84° East 440 506 25,000 60 Climbing Kansas City Center
11:53AM 38.4072 -88.1794 84° East 455 524 25,000  Level Kansas City Center
11:54AM 38.4222 -88.0189 83° East 454 522 25,000  Level Kansas City Center
11:55AM 38.4350 -87.8631 84° East 448 516 25,000  Level Indianapolis Center
11:56AM 38.4469 -87.7039 84° East 447 514 25,000  Level Indianapolis Center
11:57AM 38.4589 -87.5397 85° East 459 528 25,000  Level Indianapolis Center
11:58AM 38.4725 -87.3753 84° East 463 533 25,000  Level Indianapolis Center
11:59AM 38.4853 -87.2092 84° East 462 532 25,000 -240 Level Indianapolis Center
12:00PM 38.4964 -87.0453 85° East 455 524 24,600 -780 Descending Indianapolis Center
12:01PM 38.5083 -86.8856 84° East 445 512 23,500 -1,080 Descending Indianapolis Center
12:02PM 38.5192 -86.7311 85° East 434 499 22,500 -1,020 Descending Indianapolis Center
12:03PM 38.5289 -86.5792 85° East 428 493 21,500 -780 Descending Indianapolis Center
12:04PM 38.5394 -86.4283 85° East 426 490 21,000 -660 Descending Indianapolis Center
12:06PM 38.5483 -86.2775 86° East 425 489 20,200 -1,320 Descending Indianapolis Center
12:07PM 38.5589 -86.1283 85° East 420 483 18,400 -1,740 Descending Indianapolis Center
12:08PM 38.5678 -85.9872 85° East 399 459 16,700 -1,680 Descending Indianapolis Center
12:09PM 38.5764 -85.8417 86° East 407 468 15,000 -1,800 Descending Indianapolis Center
12:10PM 38.5864 -85.6761 86° East 389 448 13,100 -1,740 Descending Indianapolis Center
12:11PM 38.6275 -85.5525 67° East 382 440 11,500 -1,080 Descending Indianapolis Center
12:12PM 38.6750 -85.4511 59° Northeast 373 429 11,000 -300 Descending Indianapolis Center
12:13PM 38.7314 -85.3189 61° Northeast 364 419 11,000  Level Indianapolis Center
12:14PM 38.7817 -85.2042 61° Northeast 366 421 11,000  Level Indianapolis Center
12:15PM 38.8256 -85.1033 61° Northeast 328 377 11,000 -420 Level Indianapolis Center
12:16PM 38.8678 -85.0047 61° Northeast 314 361 10,200 -900 Descending Indianapolis Center
12:17PM 38.9089 -84.9108 61° Northeast 301 346 9,200 -600 Descending Indianapolis Center
12:18PM 38.9517 -84.8117 61° Northeast 297 342 9,000 -180 Descending Indianapolis Center
12:18PM 38.9667 -84.7833 56° Northeast 302 348 9,000 -240 Level Cincinnati TRACON
12:19PM 39.0500 -84.7833 360° North 301 346 8,700 -900 Descending Cincinnati TRACON
12:20PM 39.1333 -84.7833 360° North 299 344 7,200 -1,500 Descending Cincinnati TRACON
12:21PM 39.2167 -84.7833 360° North 286 329 5,800 -1,080 Descending Cincinnati TRACON
12:22PM 39.2833 -84.7833 360° North 243 280 5,200 -720 Descending Cincinnati TRACON
12:23PM 39.3167 -84.7167 57° Northeast 206 237 4,500 -600 Descending Cincinnati TRACON
12:24PM 39.2833 -84.6667 131° Southeast 157 181 4,000 -240 Descending Cincinnati TRACON
12:25PM 39.2333 -84.6667 180° South 160 184 4,000 -300 Level Cincinnati TRACON
12:26PM 39.2000 -84.6667 180° South 163 188 3,500 -660 Descending Cincinnati TRACON
12:27PM 39.1500 -84.6667 180° South 154 177 2,700 -780 Descending Cincinnati TRACON